Friday, April 20, 2018, 6:40 AM EDT
Back to Local

KWWD, Wildwood, Cape May County Airport

Location: Villas, NJ, United States Lat: 39.017
Local Time: 6:40 AM EDT (10:40 GMT) Lon: -74.917
Time Zone: US/Eastern Elev: 22 ft

Show me the last for .
Show Decoded

2018-04-20 05:55 METAR KWWD 200955Z AUTO 31012G19KT 10SM FEW038 BKN060 04/M04 A3018 RMK AO2
                 SLP221 T00441044 =
2018-04-20 04:55 METAR KWWD 200855Z AUTO 31007G15KT 10SM BKN042 OVC060 06/M03 A3015 RMK AO2
                 SLP212 T00561028 51012 =
2018-04-20 03:55 METAR KWWD 200755Z AUTO 34010G15KT 310V020 10SM BKN065 06/M03 A3013 RMK AO2
                 SLP207 T00561028 =
2018-04-20 02:55 METAR KWWD 200655Z AUTO 31010G16KT 10SM SCT045 OVC055 06/M03 A3013 RMK AO2
                 SLP207 T00611028 =
2018-04-20 01:55 METAR KWWD 200555Z AUTO 29011G17KT 10SM BKN050 06/M03 A3012 RMK AO2 SLP200
                 T00611033 10078 20061 52006 =
2018-04-20 00:55 METAR KWWD 200455Z AUTO 31009G20KT 270V340 10SM FEW055 06/M04 A3011 RMK AO2
                 SLP198 T00611039 401280061 =
2018-04-19 23:55 METAR KWWD 200355Z AUTO 33012G19KT 10SM BKN050 06/M05 A3011 RMK AO2 PK WND
                 32027/0310 SLP197 T00611050 =
2018-04-19 22:55 METAR KWWD 200255Z AUTO 31015G23KT 10SM CLR 06/M04 A3010 RMK AO2 PK WND
                 32028/0212 SLP194 T00611039 51036 =
2018-04-19 21:55 METAR KWWD 200155Z AUTO 32015G22KT 10SM SCT041 SCT055 07/M02 A3009 RMK AO2 PK
                 WND 31028/0129 SLP192 T00671022 =
2018-04-19 20:55 METAR KWWD 200055Z AUTO 31014G26KT 10SM SCT041 OVC060 07/M01 A3004 RMK AO2 PK
                 WND 31026/0046 SLP175 T00721011 =
2018-04-19 19:55 METAR KWWD 192355Z AUTO 30015G22KT 10SM FEW041 OVC060 08/M01 A2999 RMK AO2 PK
                 WND 32028/2300 SLP158 60000 T00781006 10111 20078 53038 =
2018-04-19 18:55 METAR KWWD 192255Z AUTO 32011G24KT 300V360 10SM SCT044 OVC060 09/01 A2995 RMK
                 AO2 SLP144 T00890011 =
2018-04-19 17:55 METAR KWWD 192155Z AUTO 31009G21KT 10SM FEW041 OVC055 09/02 A2991 RMK AO2 PK WND
                 31028/2138 SLP131 T00890017 =
2018-04-19 16:05 METAR KWWD 192005Z AUTO 32009G19KT 10SM -RA SCT021 BKN036 OVC049 09/05 A2984 RMK
                 AO2 P0000 =
2018-04-19 15:55 METAR KWWD 191955Z AUTO 30013G21KT 10SM -RA SCT021 BKN027 OVC049 09/04 A2984 RMK
                 AO2 RAE1858B16 SLP107 P0000 T00890044 =
2018-04-19 15:43 METAR KWWD 191943Z AUTO 31010G19KT 10SM -RA SCT021 BKN029 OVC075 09/06 A2984 RMK
                 AO2 RAE1858B16 P0000 =
2018-04-19 14:55 METAR KWWD 191855Z AUTO 31013G19KT 10SM -RA FEW017 BKN045 OVC055 09/06 A2981 RMK
                 AO2 PK WND 29031/1825 WSHFT 1819 RAB14 SLP097 P0000 T00940056 =
2018-04-19 14:48 METAR KWWD 191848Z AUTO 31011G21KT 10SM -RA FEW018 BKN035 OVC043 09/06 A2981 RMK
                 AO2 PK WND 29031/1825 WSHFT 1819 RAB14 P0000 =
2018-04-19 14:38 METAR KWWD 191838Z AUTO 31012G30KT 8SM -RA FEW016 BKN027 OVC035 09/07 A2981 RMK
                 AO2 PK WND 29031/1825 WSHFT 1819 RAB14 PRESRR P0000 =
2018-04-19 14:28 METAR KWWD 191828Z AUTO 31015G31KT 7SM -RA SCT019 BKN027 OVC036 10/07 A2979 RMK
                 AO2 PK WND 29031/1825 RAB14 PRESRR P0000 =
2018-04-19 13:55 METAR KWWD 191755Z AUTO 24008KT 10SM BKN042 OVC055 11/08 A2976 RMK AO2 SLP080
                 60002 T01110078 10128 20094 53007 =
2018-04-19 12:55 METAR KWWD 191655Z AUTO 22012KT 10SM FEW021 BKN075 OVC085 12/07 A2974 RMK AO2
                 RAE1557 SLP072 P0000 T01220072 =
2018-04-19 12:44 METAR KWWD 191644Z AUTO 21010KT 10SM SCT021 BKN075 OVC090 12/07 A2974 RMK AO2
                 RAE1557 P0000 =
2018-04-19 12:31 METAR KWWD 191631Z AUTO 21007KT 10SM FEW017 BKN023 OVC095 12/08 A2974 RMK AO2
                 RAE1557 P0000 =
2018-04-19 11:55 METAR KWWD 191555Z AUTO 20007KT 10SM -RA FEW036 SCT080 BKN100 12/09 A2972 RMK
                 AO2 SLP067 P0001 T01170089 =
2018-04-19 10:55 METAR KWWD 191455Z AUTO 27005KT 10SM -RA OVC070 10/07 A2974 RMK AO2 RAB05 SLP073
                 P0001 60001 T01000072 53028 =
2018-04-19 09:55 METAR KWWD 191355Z AUTO VRB05KT 10SM FEW080 BKN090 11/04 A2969 RMK AO2 SLP056
                 T01110039 =
2018-04-19 08:55 METAR KWWD 191255Z AUTO 08012KT 10SM BKN100 12/04 A2964 RMK AO2 SLP038 T01220039
                 =
2018-04-19 07:55 METAR KWWD 191155Z AUTO 02012G19KT 10SM SCT028 11/04 A2966 RMK AO2 SLP045
                 T01060044 10106 20078 50021 =
2018-04-19 06:55 METAR KWWD 191055Z AUTO 36009G15KT 10SM OVC018 09/06 A2968 RMK AO2 SLP053
                 T00890056 =
2018-04-19 06:46 METAR KWWD 191046Z AUTO 34009G15KT 10SM OVC016 09/06 A2968 RMK AO2 =

Support USWX by starting your Amazon purchase here.